Time;durP1;ratioP1;P1;durP2;ratioP2;P2;SDS_P1;SDS_P2;PMS_P1;PMS_P2;Temp;Humidity;BMP_temperature;BMP_pressure;BME280_temperature;BME280_humidity;BME280_pressure;Samples;Min_cycle;Max_cycle;Signal;HPM_P1;HPM_P2
2023/08/19 00:00:27;;;;;;;2.70;2.50;;;;;;;22.48;55.19;64335.06;5064421;28;20255;-80
2023/08/19 00:02:55;;;;;;;2.53;2.33;;;;;;;22.46;55.01;64330.38;5068069;28;20453;-78
2023/08/19 00:05:22;;;;;;;2.65;2.53;;;;;;;22.54;55.32;64335.63;5068955;28;20528;-78
2023/08/19 00:07:49;;;;;;;2.47;2.33;;;;;;;22.46;55.50;64330.38;5065983;28;20216;-79
2023/08/19 00:10:16;;;;;;;2.60;2.35;;;;;;;22.49;54.78;64333.50;5046312;28;20221;-79
2023/08/19 00:12:43;;;;;;;3.47;2.80;;;;;;;22.58;55.03;64339.81;5048086;28;20201;-80
2023/08/19 00:15:12;;;;;;;2.85;2.75;;;;;;;22.52;55.33;64339.25;5068526;28;20197;-82
2023/08/19 00:17:39;;;;;;;5.13;2.58;;;;;;;22.48;55.75;64329.34;5060173;28;20223;-80
2023/08/19 00:20:09;;;;;;;2.65;2.45;;;;;;;22.51;54.92;64335.59;5071916;28;20292;-78
2023/08/19 00:22:36;;;;;;;3.70;2.67;;;;;;;22.52;55.19;64333.53;5068853;28;20212;-80
2023/08/19 00:25:04;;;;;;;3.00;2.78;;;;;;;22.49;55.39;64327.78;5070797;28;20221;-78
2023/08/19 00:27:31;;;;;;;5.90;2.40;;;;;;;22.43;55.91;64322.06;5061462;28;20208;-81
2023/08/19 00:29:58;;;;;;;3.88;2.83;;;;;;;22.46;55.90;64332.44;5066867;28;20228;-80
2023/08/19 00:32:27;;;;;;;2.67;2.47;;;;;;;22.34;55.71;64312.66;5067993;28;20206;-78
2023/08/19 00:34:54;;;;;;;4.93;2.67;;;;;;;22.29;56.24;64307.41;5066332;28;20251;-79
2023/08/19 00:37:21;;;;;;;3.15;2.83;;;;;;;22.22;56.48;64302.16;5063332;28;20243;-78
2023/08/19 00:39:48;;;;;;;3.60;3.30;;;;;;;22.13;56.81;64297.94;5068614;28;20258;-79
2023/08/19 00:42:15;;;;;;;9.13;2.22;;;;;;;22.19;56.29;64296.97;5066754;28;20192;-80
2023/08/19 00:44:43;;;;;;;3.72;2.58;;;;;;;22.26;55.64;64303.75;5060442;28;20263;-78
2023/08/19 00:47:10;;;;;;;5.72;3.08;;;;;;;22.31;55.34;64309.50;5063845;28;20196;-80
2023/08/19 00:49:39;;;;;;;2.95;2.25;;;;;;;22.39;55.14;64320.47;5068819;28;20221;-79
2023/08/19 00:52:07;;;;;;;2.95;2.70;;;;;;;22.37;54.93;64317.84;5064991;28;20539;-79
2023/08/19 00:54:34;;;;;;;2.72;2.40;;;;;;;22.37;54.83;64317.84;5064799;28;20446;-78
2023/08/19 00:57:01;;;;;;;3.00;2.53;;;;;;;22.36;54.88;64314.75;5065870;28;20200;-78
2023/08/19 00:59:29;;;;;;;8.68;2.60;;;;;;;22.37;54.59;64315.78;5066985;28;20407;-78
2023/08/19 01:01:56;;;;;;;4.93;2.47;;;;;;;22.44;53.55;64319.97;5064019;28;20197;-78
2023/08/19 01:04:23;;;;;;;2.53;2.42;;;;;;;22.42;53.80;64328.78;5065395;28;20404;-78
2023/08/19 01:07:00;;;;;;;2.85;2.72;;;;;;;22.42;54.41;64323.59;5067331;28;20196;-80
2023/08/19 01:09:39;;;;;;;3.15;2.60;;;;;;;22.35;55.03;64315.75;5050369;28;20225;-78
2023/08/19 01:12:13;;;;;;;2.75;2.55;;;;;;;22.25;55.13;64305.28;5068401;28;20200;-78
2023/08/19 01:14:51;;;;;;;2.75;2.65;;;;;;;22.19;55.28;64299.03;5072218;28;20219;-79
2023/08/19 01:17:21;;;;;;;2.78;2.63;;;;;;;22.06;55.21;64291.16;5069778;28;20472;-80
2023/08/19 01:19:49;;;;;;;3.10;2.90;;;;;;;22.03;55.32;64284.91;5068731;28;20236;-78
2023/08/19 01:22:28;;;;;;;4.80;2.88;;;;;;;22.02;55.08;64279.19;5070179;28;20193;-79
2023/08/19 01:24:58;;;;;;;3.00;2.80;;;;;;;21.96;55.79;64275.00;5070808;28;20247;-80
2023/08/19 01:27:27;;;;;;;2.50;2.40;;;;;;;21.90;54.72;64268.72;5070119;28;20219;-80
2023/08/19 01:29:55;;;;;;;3.95;2.78;;;;;;;21.86;54.56;64262.47;5064414;28;20288;-80
2023/08/19 01:32:23;;;;;;;2.97;2.78;;;;;;;21.91;55.37;64272.88;5073715;28;20197;-80
2023/08/19 01:34:53;;;;;;;3.38;2.72;;;;;;;21.91;55.16;64270.28;5070439;28;20468;-79
2023/08/19 01:37:27;;;;;;;2.70;2.60;;;;;;;21.90;55.03;64268.72;5070156;28;20265;-80
2023/08/19 01:39:57;;;;;;;6.18;3.78;;;;;;;21.87;54.32;64265.59;5067815;28;20219;-79
2023/08/19 01:42:26;;;;;;;2.67;2.53;;;;;;;21.76;54.48;64252.53;5070234;28;20200;-79
2023/08/19 01:44:54;;;;;;;4.68;2.97;;;;;;;21.77;55.12;64256.19;5070661;28;20232;-81
2023/08/19 01:47:22;;;;;;;3.13;2.92;;;;;;;21.70;55.05;64246.25;5066926;28;20200;-81
2023/08/19 01:49:50;;;;;;;2.95;2.70;;;;;;;21.69;53.96;64247.81;5070995;28;20227;-80
2023/08/19 01:52:19;;;;;;;5.47;3.00;;;;;;;21.70;54.46;64250.91;5074825;28;20220;-81
2023/08/19 01:54:48;;;;;;;2.60;2.50;;;;;;;21.71;54.13;64244.72;5069358;28;20216;-79
2023/08/19 01:57:17;;;;;;;2.67;2.47;;;;;;;21.77;53.32;64253.59;5070347;28;20204;-80
2023/08/19 01:59:44;;;;;;;2.95;2.30;;;;;;;21.82;52.91;64265.53;5068195;28;20216;-82
2023/08/19 02:02:11;;;;;;;7.68;2.78;;;;;;;21.89;53.62;64268.19;5067791;28;20225;-78
2023/08/19 02:04:38;;;;;;;2.80;2.60;;;;;;;21.86;53.45;64264.53;5071201;28;20220;-80
2023/08/19 02:07:06;;;;;;;2.97;2.78;;;;;;;21.85;53.07;64261.44;5051416;28;20232;-79
2023/08/19 02:09:33;;;;;;;2.75;2.47;;;;;;;21.82;53.05;64255.69;5048338;28;20225;-80
2023/08/19 02:12:00;;;;;;;2.38;2.28;;;;;;;21.76;53.11;64259.78;5059761;28;20250;-78
2023/08/19 02:14:28;;;;;;;2.60;2.40;;;;;;;21.82;53.23;64258.28;5067202;28;20552;-79
2023/08/19 02:16:56;;;;;;;2.97;2.78;;;;;;;21.80;53.02;64263.97;5068823;28;20369;-80
2023/08/19 02:19:22;;;;;;;2.78;2.55;;;;;;;21.78;53.51;64256.69;5071957;28;20224;-78
2023/08/19 02:21:50;;;;;;;2.88;2.50;;;;;;;21.74;53.44;64255.63;5071226;28;20367;-79
2023/08/19 02:24:17;;;;;;;2.38;2.28;;;;;;;21.68;53.17;64243.66;5067786;28;20212;-81
2023/08/19 02:26:44;;;;;;;2.88;2.65;;;;;;;21.66;53.34;64241.56;5069373;28;20200;-78
2023/08/19 02:29:11;;;;;;;3.55;2.35;;;;;;;21.69;53.41;64244.69;5066338;28;20474;-80
2023/08/19 02:31:40;;;;;;;2.40;2.20;;;;;;;21.68;53.49;64249.34;5052398;28;20208;-79
2023/08/19 02:34:08;;;;;;;3.65;2.78;;;;;;;21.66;53.54;64244.16;5068381;28;20220;-79
2023/08/19 02:36:35;;;;;;;2.58;2.28;;;;;;;21.64;53.58;64239.97;5075287;28;20196;-80
2023/08/19 02:39:02;;;;;;;2.88;2.67;;;;;;;21.62;53.93;64237.38;5069672;28;20232;-80
2023/08/19 02:41:29;;;;;;;3.20;2.88;;;;;;;21.66;53.68;64247.25;5067269;28;20224;-79
2023/08/19 02:43:57;;;;;;;2.42;2.22;;;;;;;21.63;54.16;64238.41;5070748;28;20219;-79
2023/08/19 02:46:24;;;;;;;2.80;2.60;;;;;;;21.55;53.70;64232.66;5069387;28;20388;-80
2023/08/19 02:48:53;;;;;;;3.78;3.00;;;;;;;21.48;54.35;64225.34;5065637;28;20221;-81
2023/08/19 02:51:19;;;;;;;3.72;2.70;;;;;;;21.47;55.06;64227.41;5071694;28;20197;-79
2023/08/19 02:53:46;;;;;;;2.60;2.50;;;;;;;21.45;54.71;64222.22;5068105;28;20404;-80
2023/08/19 02:56:13;;;;;;;2.83;2.50;;;;;;;21.42;54.62;64224.78;5069124;28;20217;-82
2023/08/19 02:58:40;;;;;;;3.05;2.85;;;;;;;21.35;55.27;64217.47;5068573;28;20221;-80
2023/08/19 03:01:07;;;;;;;2.60;2.40;;;;;;;21.33;55.00;64215.38;5066738;28;20278;-81
2023/08/19 03:03:34;;;;;;;2.88;2.67;;;;;;;21.26;55.56;64202.38;5066648;28;20212;-80
2023/08/19 03:06:03;;;;;;;2.70;2.60;;;;;;;21.25;55.13;64201.31;5052426;28;20267;-80
2023/08/19 03:08:30;;;;;;;2.33;2.13;;;;;;;21.19;55.24;64195.56;5054336;28;20239;-78
2023/08/19 03:10:57;;;;;;;2.72;2.22;;;;;;;21.25;55.75;64207.03;5068338;28;20251;-80
2023/08/19 03:13:24;;;;;;;2.40;2.30;;;;;;;21.24;55.49;64198.22;5065840;28;20216;-81
2023/08/19 03:15:52;;;;;;;2.40;2.20;;;;;;;21.20;55.82;64198.69;5069139;28;20196;-80
2023/08/19 03:18:20;;;;;;;3.50;3.28;;;;;;;21.15;55.15;64188.28;5065261;28;20239;-81
2023/08/19 03:20:56;;;;;;;2.47;2.38;;;;;;;21.01;55.53;64176.78;5067154;28;20224;-80
2023/08/19 03:23:26;;;;;;;2.60;2.42;;;;;;;21.02;55.49;64177.31;5065384;28;20599;-81
2023/08/19 03:25:53;;;;;;;5.68;2.47;;;;;;;21.10;55.25;64188.25;5059735;28;20247;-79
2023/08/19 03:28:20;;;;;;;4.93;2.40;;;;;;;21.08;55.25;64183.56;5046675;28;20224;-80
2023/08/19 03:30:47;;;;;;;4.30;2.72;;;;;;;21.02;55.63;64179.91;5066744;28;20269;-79
2023/08/19 03:33:15;;;;;;;2.30;2.15;;;;;;;20.96;55.36;64171.00;5047952;28;20248;-78
2023/08/19 03:35:42;;;;;;;3.05;2.78;;;;;;;21.00;55.81;64172.63;5050683;28;20475;-81
2023/08/19 03:38:10;;;;;;;2.90;2.55;;;;;;;21.02;55.93;64177.81;5070604;28;20220;-80
2023/08/19 03:40:38;;;;;;;2.75;2.63;;;;;;;21.00;55.66;64173.13;5067903;28;20197;-78
2023/08/19 03:43:06;;;;;;;2.30;2.20;;;;;;;20.97;55.57;64179.84;5067641;28;20544;-80
2023/08/19 03:45:35;;;;;;;2.67;2.35;;;;;;;21.03;56.20;64176.28;5066383;28;20200;-79
2023/08/19 03:48:02;;;;;;;2.35;2.25;;;;;;;21.06;56.43;64181.47;5069185;28;20288;-80
2023/08/19 03:50:29;;;;;;;2.63;2.42;;;;;;;21.03;56.46;64173.69;5069161;28;20197;-80
2023/08/19 03:52:56;;;;;;;2.60;2.50;;;;;;;21.14;56.45;64192.44;5068698;28;20196;-80
2023/08/19 03:55:23;;;;;;;2.70;2.60;;;;;;;21.13;56.38;64188.78;5066361;28;20219;-80
2023/08/19 03:57:52;;;;;;;3.53;2.28;;;;;;;21.11;55.95;64184.63;5065567;28;20203;-81
2023/08/19 04:00:19;;;;;;;2.75;2.55;;;;;;;21.19;56.02;64197.66;5067656;28;20201;-79
2023/08/19 04:02:46;;;;;;;2.63;2.42;;;;;;;21.22;55.95;64196.13;5066372;28;20252;-80
2023/08/19 04:05:13;;;;;;;2.45;2.25;;;;;;;21.30;56.20;64207.06;5072634;28;20218;-80
2023/08/19 04:07:40;;;;;;;3.13;2.67;;;;;;;21.31;55.21;64205.50;5065876;28;20196;-81
2023/08/19 04:10:09;;;;;;;3.13;2.35;;;;;;;21.24;54.92;64197.69;5067768;28;20216;-81
2023/08/19 04:12:36;;;;;;;5.13;2.60;;;;;;;21.37;55.22;64213.84;5065694;28;20197;-82
2023/08/19 04:15:05;;;;;;;3.33;2.30;;;;;;;21.33;54.59;64210.19;5067066;28;20220;-80
2023/08/19 04:17:34;;;;;;;2.80;2.60;;;;;;;21.40;54.39;64216.97;5065363;28;20201;-80
2023/08/19 04:20:03;;;;;;;7.05;2.83;;;;;;;21.36;54.11;64213.34;5070226;28;20217;-79
2023/08/19 04:22:30;;;;;;;2.85;2.75;;;;;;;21.55;54.38;64233.16;5069751;28;20232;-79
2023/08/19 04:24:57;;;;;;;3.05;2.40;;;;;;;21.68;54.20;64243.66;5065646;28;20212;-80
2023/08/19 04:27:24;;;;;;;2.67;2.47;;;;;;;21.82;54.12;64260.34;5063944;28;20209;-80
2023/08/19 04:29:51;;;;;;;4.03;2.17;;;;;;;21.88;54.64;64266.63;5067894;28;20212;-79
2023/08/19 04:32:20;;;;;;;3.15;2.35;;;;;;;21.94;54.70;64276.03;5068247;28;20196;-82
2023/08/19 04:34:49;;;;;;;3.03;2.72;;;;;;;22.06;54.85;64291.16;5069764;28;20220;-80
2023/08/19 04:37:16;;;;;;;3.85;2.75;;;;;;;22.19;53.83;64296.44;5067057;28;20235;-81
2023/08/19 04:39:43;;;;;;;4.03;2.88;;;;;;;22.15;56.37;64294.84;5068442;28;20284;-80
2023/08/19 04:42:10;;;;;;;2.97;2.78;;;;;;;22.29;57.27;64309.50;5067685;28;20314;-80
2023/08/19 04:44:37;;;;;;;5.13;3.05;;;;;;;22.25;58.09;64310.50;5069645;28;20239;-81
2023/08/19 04:47:05;;;;;;;2.80;2.70;;;;;;;22.21;58.46;64295.94;5073537;28;20199;-80
2023/08/19 04:49:34;;;;;;;2.90;2.70;;;;;;;22.14;58.24;64291.72;5071933;28;20216;-81
2023/08/19 04:52:01;;;;;;;9.73;3.78;;;;;;;22.23;58.08;64308.91;5069118;28;20213;-80
2023/08/19 04:54:28;;;;;;;4.10;3.72;;;;;;;22.34;57.79;64314.72;5067687;28;20229;-81
2023/08/19 04:56:55;;;;;;;2.83;2.72;;;;;;;22.30;57.57;64307.94;5071256;28;20261;-81
2023/08/19 04:59:22;;;;;;;3.28;3.00;;;;;;;22.48;57.69;64324.69;5070731;28;20413;-79
2023/08/19 05:01:49;;;;;;;3.63;3.28;;;;;;;22.47;57.87;64333.47;5071685;28;20233;-79
2023/08/19 05:04:16;;;;;;;5.05;2.53;;;;;;;22.60;57.12;64342.44;5072798;28;20219;-79
2023/08/19 05:06:45;;;;;;;2.92;2.72;;;;;;;22.65;57.23;64347.13;5072894;28;20253;-80
2023/08/19 05:09:13;;;;;;;4.25;3.05;;;;;;;22.76;57.42;64359.16;5067174;28;20424;-80
2023/08/19 05:11:40;;;;;;;3.00;2.90;;;;;;;22.86;56.65;64372.22;5071648;28;20207;-80
2023/08/19 05:14:08;;;;;;;3.20;2.80;;;;;;;;;;5073480;28;20232;-81
2023/08/19 05:16:34;;;;;;;2.45;2.25;;;;;;;23.14;53.46;64395.78;5072426;28;20235;-80
2023/08/19 05:19:07;;;;;;;4.30;2.75;;;;;;;23.25;53.48;64409.34;5069631;28;20253;-81
2023/08/19 05:21:34;;;;;;;2.70;2.50;;;;;;;23.42;51.25;64424.56;5072910;28;20271;-80
2023/08/19 05:24:03;;;;;;;4.63;2.95;;;;;;;23.54;50.90;64442.34;5070007;28;20580;-81
2023/08/19 05:26:30;;;;;;;2.33;2.22;;;;;;;23.63;50.72;64454.88;5063844;28;20203;-79
2023/08/19 05:28:57;;;;;;;2.92;2.13;;;;;;;23.73;50.66;64454.94;5071701;28;20217;-81
2023/08/19 05:31:25;;;;;;;2.50;2.30;;;;;;;23.90;50.32;64477.91;5072614;28;20426;-80
2023/08/19 05:33:53;;;;;;;2.33;1.83;;;;;;;23.94;48.79;64481.56;5071233;28;20216;-80
2023/08/19 05:36:20;;;;;;;2.95;1.90;;;;;;;24.03;48.54;64488.41;5069014;28;20201;-81
2023/08/19 05:38:47;;;;;;;3.78;2.80;;;;;;;24.13;48.98;64501.50;5069546;28;20220;-82
2023/08/19 05:41:16;;;;;;;2.22;2.13;;;;;;;24.24;49.14;64512.47;5070279;28;20223;-81
2023/08/19 05:43:43;;;;;;;3.78;2.28;;;;;;;24.32;48.94;64518.78;5073037;28;20220;-80
2023/08/19 05:46:11;;;;;;;2.40;2.20;;;;;;;24.44;48.99;64533.41;5063833;28;20201;-79
2023/08/19 05:48:38;;;;;;;2.95;2.75;;;;;;;24.54;49.39;64544.41;5068272;28;20217;-82
2023/08/19 05:51:06;;;;;;;4.18;2.63;;;;;;;24.61;48.01;64554.34;5067124;28;20252;-80
2023/08/19 05:53:33;;;;;;;2.58;2.38;;;;;;;24.77;48.66;64565.38;5070909;28;20413;-81
2023/08/19 05:56:00;;;;;;;4.57;2.20;;;;;;;24.86;47.92;64575.34;5069730;28;20225;-81
2023/08/19 05:58:29;;;;;;;2.83;2.63;;;;;;;24.87;48.58;64578.47;5069456;28;20224;-81
2023/08/19 06:00:59;;;;;;;3.80;3.15;;;;;;;25.04;48.58;64593.66;5068737;28;20247;-81
2023/08/19 06:03:26;;;;;;;3.50;2.67;;;;;;;25.13;48.19;64605.19;5069809;28;20252;-81
2023/08/19 06:05:53;;;;;;;2.75;2.53;;;;;;;25.21;47.65;64616.69;5072512;28;20434;-81
2023/08/19 06:08:20;;;;;;;2.30;2.10;;;;;;;25.12;47.21;64607.28;5064429;28;20224;-82
2023/08/19 06:10:47;;;;;;;3.53;2.38;;;;;;;25.25;47.45;64623.47;5070498;28;20215;-82
2023/08/19 06:13:15;;;;;;;2.17;2.08;;;;;;;25.26;46.55;64616.19;5070487;28;20232;-80
2023/08/19 06:15:43;;;;;;;3.50;2.22;;;;;;;25.36;46.24;64629.28;5070522;28;20211;-81
2023/08/19 06:18:11;;;;;;;2.85;2.20;;;;;;;25.45;45.39;64639.25;5068540;28;20276;-80
2023/08/19 06:20:39;;;;;;;2.30;2.20;;;;;;;25.41;45.38;64635.06;5072418;28;20216;-81
2023/08/19 06:23:06;;;;;;;2.95;2.03;;;;;;;25.51;45.37;64642.94;5064594;28;20232;-82
2023/08/19 06:25:33;;;;;;;2.10;2.00;;;;;;;25.49;45.19;64640.81;5073050;28;20181;-80
2023/08/19 06:28:00;;;;;;;2.40;2.30;;;;;;;25.51;46.13;64645.53;5071602;28;20248;-81
2023/08/19 06:30:27;;;;;;;2.97;1.98;;;;;;;25.40;45.00;64628.81;5072160;28;20192;-80
2023/08/19 06:32:57;;;;;;;4.32;2.50;;;;;;;25.46;44.71;64637.16;5064542;28;20206;-83
2023/08/19 06:35:25;;;;;;;2.70;2.50;;;;;;;25.57;44.69;64657.06;5073808;28;20204;-82
2023/08/19 06:37:55;;;;;;;4.15;3.17;;;;;;;25.68;44.50;64663.34;5072212;28;20211;-82
2023/08/19 06:40:26;;;;;;;3.03;2.83;;;;;;;25.71;44.86;64666.50;5071082;28;20200;-80
2023/08/19 06:42:54;;;;;;;2.60;2.50;;;;;;;25.65;45.08;64657.06;5071826;28;20284;-81
2023/08/19 06:45:23;;;;;;;3.00;2.90;;;;;;;25.67;43.98;64664.91;5076336;28;20287;-81
2023/08/19 06:47:53;;;;;;;3.20;3.00;;;;;;;25.70;43.75;64665.44;5060383;28;20197;-82
2023/08/19 06:50:24;;;;;;;2.92;2.72;;;;;;;25.71;42.32;64665.97;5060499;28;20207;-81
2023/08/19 06:52:52;;;;;;;4.72;2.42;;;;;;;25.52;43.20;64646.06;5061477;28;20204;-80
2023/08/19 06:55:21;;;;;;;3.60;2.20;;;;;;;25.44;43.59;64638.19;5071663;28;20207;-82
2023/08/19 06:57:56;;;;;;;5.13;3.00;;;;;;;25.49;44.30;64642.94;5068263;28;20204;-83
2023/08/19 07:00:24;;;;;;;2.70;2.55;;;;;;;25.58;43.60;64655.47;5068634;28;20446;-82
2023/08/19 07:02:54;;;;;;;2.55;2.40;;;;;;;25.69;43.03;64663.88;5071190;28;20228;-80
2023/08/19 07:05:24;;;;;;;2.40;2.30;;;;;;;25.80;43.30;64675.41;5071935;28;20189;-79
2023/08/19 07:07:53;;;;;;;2.28;2.08;;;;;;;26.00;42.79;64696.91;5068305;28;20200;-81
2023/08/19 07:10:22;;;;;;;2.55;2.45;;;;;;;25.99;42.86;64697.91;5072103;28;20211;-79
2023/08/19 07:12:51;;;;;;;2.38;2.28;;;;;;;26.03;42.16;64697.44;5076192;28;20224;-79
2023/08/19 07:15:19;;;;;;;2.30;2.20;;;;;;;26.15;42.58;64712.09;5091847;28;20196;-81
2023/08/19 07:17:48;;;;;;;2.55;2.13;;;;;;;26.29;40.46;64726.25;5073263;28;20204;-81
2023/08/19 07:20:17;;;;;;;2.20;1.98;;;;;;;26.31;39.77;64725.75;5071712;28;20199;-81
2023/08/19 07:22:49;;;;;;;3.25;2.88;;;;;;;26.42;40.71;64739.91;5071629;28;20224;-81
2023/08/19 07:25:16;;;;;;;2.60;2.30;;;;;;;26.48;40.37;64746.72;5067108;28;20228;-80
2023/08/19 07:27:44;;;;;;;2.13;2.03;;;;;;;26.50;38.76;64751.44;5055145;28;20193;-79
2023/08/19 07:30:13;;;;;;;2.63;2.00;;;;;;;26.21;39.24;64715.78;5068323;28;20204;-81
2023/08/19 07:32:40;;;;;;;2.72;2.53;;;;;;;26.29;39.61;64729.41;5069068;28;20219;-80
2023/08/19 07:35:10;;;;;;;2.20;2.10;;;;;;;26.43;40.61;64744.09;5070222;28;20201;-80
2023/08/19 07:37:37;;;;;;;3.55;2.03;;;;;;;26.29;40.55;64729.41;5068703;28;20200;-80
2023/08/19 07:40:09;;;;;;;1.80;1.70;;;;;;;26.19;41.18;64718.91;5070006;28;20208;-81
2023/08/19 07:42:37;;;;;;;2.30;2.17;;;;;;;26.18;40.68;64717.84;5058338;28;20217;-79
2023/08/19 07:45:05;;;;;;;2.00;1.90;;;;;;;26.21;41.62;64715.78;5068098;28;20231;-81
2023/08/19 07:47:32;;;;;;;2.22;2.13;;;;;;;26.45;42.27;64743.56;5070068;28;20498;-81
2023/08/19 07:50:00;;;;;;;3.72;2.30;;;;;;;26.43;40.00;64740.94;5068204;28;20762;-80
2023/08/19 07:52:27;;;;;;;1.83;1.73;;;;;;;26.39;40.05;64734.16;5071167;28;20196;-79
2023/08/19 07:54:54;;;;;;;2.20;2.10;;;;;;;26.34;39.90;64734.13;5070513;28;20384;-80
2023/08/19 07:57:23;;;;;;;2.03;2.03;;;;;;;26.28;40.74;64727.81;5072784;28;20264;-79
2023/08/19 07:59:50;;;;;;;2.63;1.67;;;;;;;26.45;41.07;64743.03;5068120;28;20221;-79
2023/08/19 08:02:18;;;;;;;10.85;2.58;;;;;;;26.69;40.64;64768.22;5060336;28;20223;-81
2023/08/19 08:04:45;;;;;;;2.17;2.08;;;;;;;26.92;40.56;64795.47;5060366;28;20437;-79
2023/08/19 08:07:13;;;;;;;4.35;2.15;;;;;;;27.14;39.30;64815.44;5063019;28;20189;-79
2023/08/19 08:09:41;;;;;;;3.45;2.13;;;;;;;27.37;40.28;64842.19;5070577;28;20224;-79
2023/08/19 08:12:09;;;;;;;2.05;1.95;;;;;;;27.48;40.51;64853.75;5069659;28;20215;-80
2023/08/19 08:14:38;;;;;;;1.88;1.77;;;;;;;27.52;39.78;64855.31;5069173;28;20289;-79
2023/08/19 08:17:06;;;;;;;2.95;2.10;;;;;;;27.68;39.61;64874.22;5068898;28;20204;-79
2023/08/19 08:19:33;;;;;;;3.30;1.77;;;;;;;27.47;39.27;64852.69;5067274;28;20339;-82
2023/08/19 08:22:00;;;;;;;2.28;2.08;;;;;;;27.58;39.47;64861.09;5070290;28;20204;-80
2023/08/19 08:24:28;;;;;;;2.95;2.33;;;;;;;27.78;39.79;64882.63;5071382;28;20243;-79
2023/08/19 08:26:55;;;;;;;4.53;2.30;;;;;;;27.88;40.46;64893.09;5057558;28;20201;-83
2023/08/19 08:29:24;;;;;;;2.47;2.28;;;;;;;28.08;40.18;64908.88;5058131;28;20529;-81
2023/08/19 08:31:53;;;;;;;2.20;2.10;;;;;;;28.29;39.46;64935.63;5070037;28;20192;-83
2023/08/19 08:34:20;;;;;;;5.68;2.97;;;;;;;28.53;39.57;64957.72;5068925;28;20217;-82
2023/08/19 08:36:48;;;;;;;2.60;2.40;;;;;;;28.65;39.18;64976.09;5049875;28;20228;-82
2023/08/19 08:39:16;;;;;;;2.63;2.42;;;;;;;28.62;38.40;64975.56;5054510;28;20216;-80
2023/08/19 08:41:44;;;;;;;4.20;2.80;;;;;;;28.70;38.89;64980.81;5069437;28;20201;-80
2023/08/19 08:44:11;;;;;;;3.90;2.47;;;;;;;29.00;38.08;65010.22;5072731;28;20230;-82
2023/08/19 08:46:40;;;;;;;2.03;1.80;;;;;;;29.15;37.82;65025.47;5068653;28;20502;-81
2023/08/19 08:49:09;;;;;;;2.00;1.90;;;;;;;29.34;37.81;65048.59;5069966;28;20220;-80
2023/08/19 08:51:38;;;;;;;3.17;2.88;;;;;;;29.60;38.51;65072.75;5069440;28;20208;-81
2023/08/19 08:54:07;;;;;;;3.95;2.20;;;;;;;29.65;36.77;65078.00;5069919;28;20239;-82
2023/08/19 08:56:34;;;;;;;2.30;2.20;;;;;;;29.50;37.80;65064.88;5063258;28;20208;-81
2023/08/19 08:59:01;;;;;;;2.70;2.50;;;;;;;29.46;37.46;65055.41;5061055;28;20560;-79
2023/08/19 09:01:30;;;;;;;3.35;2.28;;;;;;;29.63;38.05;65075.94;5070818;28;20193;-83
2023/08/19 09:04:03;;;;;;;3.63;2.10;;;;;;;29.58;36.75;65070.66;5072021;28;20259;-80
2023/08/19 09:06:33;;;;;;;2.65;2.25;;;;;;;29.81;36.59;65092.22;5070482;28;20490;-82
2023/08/19 09:09:03;;;;;;;3.30;2.08;;;;;;;30.06;35.76;65121.13;5063139;28;20228;-81
2023/08/19 09:11:35;;;;;;;3.92;1.80;;;;;;;30.22;35.51;65135.31;5069008;28;20264;-80
2023/08/19 09:14:10;;;;;;;2.78;2.03;;;;;;;30.44;35.12;65160.59;5069506;28;20422;-80
2023/08/19 09:16:38;;;;;;;3.10;2.28;;;;;;;30.61;34.63;65175.84;5070563;28;20188;-80
2023/08/19 09:19:06;;;;;;;2.25;2.15;;;;;;;30.72;34.11;65192.66;5069646;28;20220;-80
2023/08/19 09:21:36;;;;;;;2.10;2.00;;;;;;;30.52;34.31;65172.16;5061772;28;20498;-80
2023/08/19 09:24:03;;;;;;;4.60;2.00;;;;;;;30.58;34.51;65175.31;5058648;28;20236;-81
2023/08/19 09:26:35;;;;;;;2.63;2.42;;;;;;;30.67;34.05;65184.25;5052805;28;20232;-80
2023/08/19 09:29:02;;;;;;;2.22;1.95;;;;;;;30.87;34.06;65203.22;5063657;28;20236;-79
2023/08/19 09:31:30;;;;;;;2.30;2.17;;;;;;;30.50;34.27;65166.91;5072866;28;20200;-81
2023/08/19 09:34:00;;;;;;;2.63;2.20;;;;;;;29.98;35.09;65112.19;5073676;28;20230;-80
2023/08/19 09:36:27;;;;;;;3.70;2.40;;;;;;;29.72;35.56;65088.03;5072364;28;20239;-80
2023/08/19 09:38:57;;;;;;;2.05;1.95;;;;;;;29.73;35.04;65083.84;5074151;28;20276;-80
2023/08/19 09:41:27;;;;;;;2.35;2.15;;;;;;;29.74;35.87;65092.75;5074095;28;20375;-80
2023/08/19 09:43:56;;;;;;;2.47;2.28;;;;;;;29.59;36.50;65069.09;5068536;28;20228;-79
2023/08/19 09:46:31;;;;;;;4.30;1.92;;;;;;;29.23;36.40;65037.03;5073231;28;20533;-79
2023/08/19 09:48:59;;;;;;;2.33;2.15;;;;;;;28.91;35.98;65006.03;5074327;28;20241;-80
2023/08/19 09:51:28;;;;;;;5.97;2.70;;;;;;;28.80;37.04;64991.84;5073146;28;20204;-79
2023/08/19 09:53:59;;;;;;;2.30;2.17;;;;;;;28.91;37.33;65000.25;5073549;28;20220;-80
2023/08/19 09:56:27;;;;;;;2.28;2.17;;;;;;;29.12;36.20;65022.84;5074067;28;20252;-81
2023/08/19 09:58:56;;;;;;;2.03;1.92;;;;;;;29.19;35.94;65034.94;5071116;28;20292;-80
2023/08/19 10:01:27;;;;;;;1.90;1.80;;;;;;;29.39;36.34;65050.69;5067457;28;20201;-79
2023/08/19 10:03:59;;;;;;;2.38;2.17;;;;;;;29.50;35.58;65062.78;5061747;28;20243;-80
2023/08/19 10:06:34;;;;;;;2.20;2.10;;;;;;;29.48;36.37;65060.69;5055594;28;20204;-80
2023/08/19 10:09:05;;;;;;;4.20;2.30;;;;;;;29.86;34.82;65096.94;5071409;28;20227;-82
2023/08/19 10:11:34;;;;;;;2.60;1.85;;;;;;;29.95;37.43;65111.66;5073768;28;20243;-81
2023/08/19 10:14:04;;;;;;;3.35;2.20;;;;;;;29.95;36.50;65111.66;5073572;28;20220;-80
2023/08/19 10:16:34;;;;;;;2.25;2.05;;;;;;;30.09;35.86;65123.75;5063553;28;20204;-81
2023/08/19 10:19:04;;;;;;;2.67;2.47;;;;;;;29.97;35.17;65114.31;5068016;28;20229;-80
2023/08/19 10:21:32;;;;;;;1.83;1.77;;;;;;;30.16;35.89;65133.75;5074819;28;20264;-81
2023/08/19 10:24:01;;;;;;;4.00;2.60;;;;;;;30.35;35.69;65159.53;5071050;28;20232;-81
2023/08/19 10:26:29;;;;;;;2.40;2.30;;;;;;;30.49;34.48;65168.47;5067023;28;20520;-78
2023/08/19 10:29:04;;;;;;;2.92;2.28;;;;;;;30.19;36.19;65132.19;5053223;28;20221;-80
2023/08/19 10:31:33;;;;;;;2.17;1.98;;;;;;;30.09;35.78;65126.94;5069611;28;20202;-80
2023/08/19 10:34:01;;;;;;;2.45;2.00;;;;;;;30.23;36.21;65136.41;5053081;28;20241;-80
2023/08/19 10:36:30;;;;;;;4.28;2.10;;;;;;;30.46;35.07;65165.31;5062347;28;20259;-79
2023/08/19 10:39:00;;;;;;;2.22;2.10;;;;;;;30.36;35.22;65155.34;5059526;28;20276;-82
2023/08/19 10:41:30;;;;;;;2.42;2.00;;;;;;;30.21;34.25;65141.63;5058064;28;20217;-82
2023/08/19 10:43:59;;;;;;;1.73;1.67;;;;;;;30.39;34.87;65152.72;5067618;28;20240;-81
2023/08/19 10:46:33;;;;;;;2.70;2.55;;;;;;;30.51;35.11;65168.47;5052124;28;20190;-82
2023/08/19 10:49:00;;;;;;;3.50;2.10;;;;;;;30.75;34.91;65195.81;5051337;28;20256;-81
2023/08/19 10:51:48;;;;;;;2.33;2.22;;;;;;;30.99;34.67;65221.09;5054328;28;20209;-80
2023/08/19 10:54:16;;;;;;;3.53;2.03;;;;;;;30.96;35.30;65215.28;5050748;28;20243;-81
2023/08/19 10:57:04;;;;;;;2.90;2.70;;;;;;;31.32;33.49;65258.44;5052135;28;20202;-81
2023/08/19 10:59:32;;;;;;;3.05;2.85;;;;;;;31.69;34.02;65289.50;5054136;28;20226;-83
2023/08/19 11:02:00;;;;;;;2.00;1.90;;;;;;;31.99;34.45;65320.56;5061475;28;20387;-80
2023/08/19 11:04:28;;;;;;;3.17;2.20;;;;;;;32.28;33.39;65348.47;5055516;28;20238;-81
2023/08/19 11:06:56;;;;;;;2.03;1.92;;;;;;;32.06;32.42;65338.47;5070478;28;20503;-80
2023/08/19 11:09:25;;;;;;;2.63;2.20;;;;;;;32.04;32.90;65325.28;5070185;28;20216;-81
2023/08/19 11:11:57;;;;;;;2.50;2.40;;;;;;;31.47;32.83;65268.44;5064523;28;20532;-82
2023/08/19 11:14:24;;;;;;;2.38;2.28;;;;;;;31.74;32.83;65298.97;5052409;28;20300;-80
2023/08/19 11:16:53;;;;;;;3.33;2.10;;;;;;;31.98;32.89;65326.91;5059645;28;20201;-81
2023/08/19 11:19:22;;;;;;;2.45;2.22;;;;;;;32.11;32.78;65335.31;5055240;28;20217;-81
2023/08/19 11:21:50;;;;;;;2.80;2.63;;;;;;;32.15;32.07;65342.66;5064607;28;20231;-80
2023/08/19 11:24:17;;;;;;;2.70;2.40;;;;;;;32.34;32.89;65362.16;5070559;28;20236;-83
2023/08/19 11:26:46;;;;;;;2.33;2.22;;;;;;;32.61;32.95;65385.88;5066079;28;20197;-82
2023/08/19 11:29:16;;;;;;;4.72;2.30;;;;;;;32.58;31.37;65387.97;5071762;28;20220;-80
2023/08/19 11:31:44;;;;;;;4.25;2.15;;;;;;;32.30;32.11;65355.84;5052091;28;20186;-80
2023/08/19 11:34:13;;;;;;;2.00;1.90;;;;;;;31.95;30.64;65315.81;5058389;28;20216;-80
2023/08/19 11:36:44;;;;;;;2.42;2.22;;;;;;;31.95;32.48;65319.00;5070591;28;20316;-83
2023/08/19 11:39:11;;;;;;;4.10;2.05;;;;;;;31.80;34.18;65302.66;5069151;28;20529;-85